createdAt,value
2017-03-20T00:00:54.780Z,938.8
2017-03-20T00:02:02.812Z,938.8
2017-03-20T00:03:10.899Z,938.8
2017-03-20T00:04:18.985Z,938.8
2017-03-20T00:05:27.084Z,938.8
2017-03-20T00:06:35.224Z,938.8
2017-03-20T00:07:43.251Z,938.8
2017-03-20T00:08:51.342Z,938.8
2017-03-20T00:09:59.496Z,938.9
2017-03-20T00:11:07.515Z,938.8
2017-03-20T00:12:15.659Z,938.8
2017-03-20T00:13:24.201Z,938.8
2017-03-20T00:14:31.788Z,938.8
2017-03-20T00:15:39.871Z,938.8
2017-03-20T00:16:47.965Z,938.8
2017-03-20T00:17:56.117Z,938.8
2017-03-20T00:19:04.142Z,938.8
2017-03-20T00:20:12.274Z,938.8
2017-03-20T00:21:20.360Z,938.8
2017-03-20T00:22:28.404Z,938.9
2017-03-20T00:23:37.001Z,938.9
2017-03-20T00:24:44.581Z,938.8
2017-03-20T00:25:52.854Z,938.8
2017-03-20T00:27:00.753Z,938.8
2017-03-20T00:28:08.841Z,938.8
2017-03-20T00:29:17.000Z,938.8
2017-03-20T00:30:25.019Z,938.8
2017-03-20T00:31:33.111Z,938.8
2017-03-20T00:32:41.212Z,938.8
2017-03-20T00:33:49.301Z,938.8
2017-03-20T00:34:57.443Z,938.7
2017-03-20T00:36:05.474Z,938.8
2017-03-20T00:37:13.564Z,938.8
2017-03-20T00:38:21.655Z,938.8
2017-03-20T00:39:29.737Z,938.8
2017-03-20T00:40:38.326Z,938.8
2017-03-20T00:41:45.913Z,938.8
2017-03-20T00:42:54.003Z,938.8
2017-03-20T00:44:02.088Z,938.9
2017-03-20T00:45:10.242Z,938.9
2017-03-20T00:46:18.415Z,938.9
2017-03-20T00:47:26.357Z,938.9
2017-03-20T00:48:34.448Z,938.9
2017-03-20T00:49:42.532Z,938.9
2017-03-20T00:50:50.617Z,938.9
2017-03-20T00:51:59.291Z,938.9
2017-03-20T00:53:06.796Z,938.9
2017-03-20T00:54:14.882Z,938.9
2017-03-20T00:55:22.967Z,938.9
2017-03-20T00:56:31.251Z,938.9
2017-03-20T00:57:39.203Z,938.9
2017-03-20T00:58:47.229Z,938.9
2017-03-20T00:59:55.322Z,938.9
2017-03-20T01:01:03.913Z,938.8
2017-03-20T01:02:11.492Z,938.8
2017-03-20T01:03:19.635Z,938.8
2017-03-20T01:04:27.666Z,938.8
2017-03-20T01:05:35.755Z,938.8
2017-03-20T01:06:44.005Z,938.8
2017-03-20T01:07:52.073Z,938.8
2017-03-20T01:09:00.074Z,938.8
2017-03-20T01:10:08.101Z,938.8
2017-03-20T01:11:16.189Z,938.7
2017-03-20T01:12:24.277Z,938.7
2017-03-20T01:13:32.369Z,938.7
2017-03-20T01:14:40.954Z,938.7
2017-03-20T01:15:48.543Z,938.6
2017-03-20T01:16:56.688Z,938.6
2017-03-20T01:18:04.871Z,938.6
2017-03-20T01:19:12.806Z,938.7
2017-03-20T01:20:20.951Z,938.7
2017-03-20T01:21:28.982Z,938.6
2017-03-20T01:22:37.067Z,938.6
2017-03-20T01:23:45.158Z,938.7
2017-03-20T01:24:53.245Z,938.7
2017-03-20T01:26:01.385Z,938.7
2017-03-20T01:27:09.419Z,938.8
2017-03-20T01:28:17.677Z,938.7
2017-03-20T01:29:25.756Z,938.7
2017-03-20T01:30:33.687Z,938.7
2017-03-20T01:31:42.280Z,938.7
2017-03-20T01:32:49.918Z,938.7
2017-03-20T01:33:57.945Z,938.7
2017-03-20T01:35:06.042Z,938.7
2017-03-20T01:36:14.124Z,938.7
2017-03-20T01:37:22.272Z,938.7
2017-03-20T01:38:30.303Z,938.7
2017-03-20T01:39:38.408Z,938.7
2017-03-20T01:40:46.481Z,938.7
2017-03-20T01:41:54.574Z,938.7
2017-03-20T01:43:02.711Z,938.7
2017-03-20T01:44:10.743Z,938.7
2017-03-20T01:45:18.838Z,938.6
2017-03-20T01:46:26.920Z,938.7
2017-03-20T01:47:35.009Z,938.7
2017-03-20T01:48:43.596Z,938.7
2017-03-20T01:49:51.271Z,938.7
2017-03-20T01:50:59.341Z,938.6
2017-03-20T01:52:07.356Z,938.6
2017-03-20T01:53:15.441Z,938.6
2017-03-20T01:54:23.593Z,938.6
2017-03-20T01:55:31.617Z,938.6
2017-03-20T01:56:39.703Z,938.6
2017-03-20T01:57:47.788Z,938.6
2017-03-20T01:58:55.880Z,938.6
2017-03-20T02:00:04.020Z,938.6
2017-03-20T02:01:12.050Z,938.6
2017-03-20T02:02:20.134Z,938.6
2017-03-20T02:03:28.231Z,938.6
2017-03-20T02:04:36.822Z,938.6
2017-03-20T02:05:44.493Z,938.6
2017-03-20T02:06:52.495Z,938.6
2017-03-20T02:08:00.578Z,938.6
2017-03-20T02:09:08.665Z,938.6
2017-03-20T02:10:16.748Z,938.5
2017-03-20T02:11:24.899Z,938.5
2017-03-20T02:12:32.928Z,938.5
2017-03-20T02:13:41.013Z,938.5
2017-03-20T02:14:49.109Z,938.5
2017-03-20T02:15:57.193Z,938.5
2017-03-20T02:17:05.830Z,938.5
2017-03-20T02:18:13.370Z,938.5
2017-03-20T02:19:21.473Z,938.5
2017-03-20T02:20:29.607Z,938.5
2017-03-20T02:21:37.812Z,938.5
2017-03-20T02:22:45.779Z,938.5
2017-03-20T02:23:53.811Z,938.5
2017-03-20T02:25:01.900Z,938.4
2017-03-20T02:26:09.991Z,938.4
2017-03-20T02:27:18.095Z,938.4
2017-03-20T02:28:26.250Z,938.4
2017-03-20T02:29:34.253Z,938.4
2017-03-20T02:30:42.335Z,938.4
2017-03-20T02:31:50.430Z,938.4
2017-03-20T02:32:58.522Z,938.4
2017-03-20T02:34:07.111Z,938.4
2017-03-20T02:35:14.695Z,938.4
2017-03-20T02:36:22.841Z,938.4
2017-03-20T02:37:30.870Z,938.4
2017-03-20T02:38:38.976Z,938.4
2017-03-20T02:39:47.103Z,938.4
2017-03-20T02:40:55.131Z,938.4
2017-03-20T02:42:03.213Z,938.4
2017-03-20T02:43:11.493Z,938.4
2017-03-20T02:44:19.392Z,938.4
2017-03-20T02:45:27.537Z,938.3
2017-03-20T02:46:35.572Z,938.3
2017-03-20T02:47:43.659Z,938.3
2017-03-20T02:48:51.764Z,938.3
2017-03-20T02:49:59.831Z,938.3
2017-03-20T02:51:08.423Z,938.3
2017-03-20T02:52:16.064Z,938.3
2017-03-20T02:53:24.234Z,938.4
2017-03-20T02:54:32.304Z,938.3
2017-03-20T02:55:40.282Z,938.3
2017-03-20T02:56:48.478Z,938.3
2017-03-20T02:57:56.532Z,938.3
2017-03-20T02:59:04.537Z,938.3
2017-03-20T03:00:12.618Z,938.3
2017-03-20T03:01:20.707Z,938.3
2017-03-20T03:02:28.852Z,938.3
2017-03-20T03:03:36.887Z,938.3
2017-03-20T03:04:45.102Z,938.3
2017-03-20T03:05:53.060Z,938.3
2017-03-20T03:07:01.148Z,938.3
2017-03-20T03:08:09.744Z,938.4
2017-03-20T03:09:17.324Z,938.3
2017-03-20T03:10:25.411Z,938.3
2017-03-20T03:11:33.507Z,938.3
2017-03-20T03:12:41.592Z,938.3
2017-03-20T03:13:49.738Z,938.3
2017-03-20T03:14:57.777Z,938.3
2017-03-20T03:16:05.853Z,938.4
2017-03-20T03:17:13.938Z,938.4
2017-03-20T03:18:22.027Z,938.4
2017-03-20T03:19:30.172Z,938.4
2017-03-20T03:20:38.294Z,938.4
2017-03-20T03:21:46.285Z,938.4
2017-03-20T03:22:54.373Z,938.4
2017-03-20T03:24:02.514Z,938.4
2017-03-20T03:25:11.051Z,938.4
2017-03-20T03:26:18.631Z,938.4
2017-03-20T03:27:26.718Z,938.4
2017-03-20T03:28:34.803Z,938.4
2017-03-20T03:29:42.892Z,938.4
2017-03-20T03:30:51.094Z,938.5
2017-03-20T03:31:59.132Z,938.4
2017-03-20T03:33:07.148Z,938.4
2017-03-20T03:34:15.237Z,938.4
2017-03-20T03:35:23.320Z,938.4
2017-03-20T03:36:31.464Z,938.4
2017-03-20T03:37:39.500Z,938.4
2017-03-20T03:38:47.584Z,938.4
2017-03-20T03:39:56.173Z,938.4
2017-03-20T03:41:03.755Z,938.4
2017-03-20T03:42:11.980Z,938.4
2017-03-20T03:43:19.929Z,938.4
2017-03-20T03:44:28.014Z,938.4
2017-03-20T03:45:36.112Z,938.4
2017-03-20T03:46:44.186Z,938.5
2017-03-20T03:47:52.328Z,938.4
2017-03-20T03:49:00.359Z,938.4
2017-03-20T03:50:08.448Z,938.4
2017-03-20T03:51:16.541Z,938.4
2017-03-20T03:52:24.732Z,938.4
2017-03-20T03:53:32.853Z,938.4
2017-03-20T03:54:40.804Z,938.4
2017-03-20T03:55:49.388Z,938.4
2017-03-20T03:56:56.965Z,938.4
2017-03-20T03:58:05.054Z,938.5
2017-03-20T03:59:13.195Z,938.4
2017-03-20T04:00:21.224Z,938.5
2017-03-20T04:01:29.313Z,938.5
2017-03-20T04:02:37.402Z,938.5
2017-03-20T04:03:45.488Z,938.5
2017-03-20T04:04:53.635Z,938.5
2017-03-20T04:06:01.664Z,938.5
2017-03-20T04:07:09.757Z,938.5
2017-03-20T04:08:17.839Z,938.5
2017-03-20T04:09:25.929Z,938.5
2017-03-20T04:10:34.102Z,938.5
2017-03-20T04:11:42.155Z,938.5
2017-03-20T04:12:50.186Z,938.5
2017-03-20T04:13:58.302Z,938.5
2017-03-20T04:15:06.390Z,938.5
2017-03-20T04:16:14.501Z,938.5
2017-03-20T04:17:22.547Z,938.6
2017-03-20T04:18:30.802Z,938.6
2017-03-20T04:19:38.863Z,938.6
2017-03-20T04:20:46.798Z,938.6
2017-03-20T04:21:54.942Z,938.5
2017-03-20T04:23:02.968Z,938.6
2017-03-20T04:24:11.054Z,938.6
2017-03-20T04:25:19.149Z,938.6
2017-03-20T04:26:27.238Z,938.6
2017-03-20T04:27:35.825Z,938.6
2017-03-20T04:28:43.409Z,938.5
2017-03-20T04:29:51.527Z,938.5
2017-03-20T04:30:59.583Z,938.6
2017-03-20T04:32:07.675Z,938.5
2017-03-20T04:33:15.816Z,938.5
2017-03-20T04:34:23.848Z,938.5
2017-03-20T04:35:31.930Z,938.5
2017-03-20T04:36:40.018Z,938.6
2017-03-20T04:37:48.106Z,938.5
2017-03-20T04:38:56.242Z,938.5
2017-03-20T04:40:04.272Z,938.5
2017-03-20T04:41:12.439Z,938.5
2017-03-20T04:42:20.455Z,938.5
2017-03-20T04:43:29.050Z,938.5
2017-03-20T04:44:36.687Z,938.5
2017-03-20T04:45:44.907Z,938.5
2017-03-20T04:46:52.797Z,938.5
2017-03-20T04:48:00.886Z,938.5
2017-03-20T04:49:08.982Z,938.6
2017-03-20T04:50:17.120Z,938.5
2017-03-20T04:51:25.150Z,938.5
2017-03-20T04:52:33.235Z,938.5
2017-03-20T04:53:41.365Z,938.5
2017-03-20T04:54:49.413Z,938.6
2017-03-20T04:55:57.608Z,938.5
2017-03-20T04:57:05.721Z,938.5
2017-03-20T04:58:13.675Z,938.6
2017-03-20T04:59:22.266Z,938.6
2017-03-20T05:00:29.847Z,938.6
2017-03-20T05:01:37.988Z,938.6
2017-03-20T05:02:46.023Z,938.6
2017-03-20T05:03:54.114Z,938.6
2017-03-20T05:05:02.201Z,938.6
2017-03-20T05:06:10.295Z,938.6
2017-03-20T05:07:18.607Z,938.6
2017-03-20T05:08:26.460Z,938.6
2017-03-20T05:09:34.549Z,938.6
2017-03-20T05:10:42.633Z,938.6
2017-03-20T05:11:50.719Z,938.5
2017-03-20T05:12:59.335Z,938.6
2017-03-20T05:14:06.898Z,938.6
2017-03-20T05:15:15.033Z,938.6
2017-03-20T05:16:23.069Z,938.6
2017-03-20T05:17:31.330Z,938.6
2017-03-20T05:18:39.465Z,938.6
2017-03-20T05:19:47.549Z,938.6
2017-03-20T05:20:55.412Z,938.7
2017-03-20T05:22:03.498Z,938.6
2017-03-20T05:23:11.587Z,938.6
2017-03-20T05:24:19.728Z,938.7
2017-03-20T05:25:27.756Z,938.7
2017-03-20T05:26:35.840Z,938.7
2017-03-20T05:27:43.930Z,938.7
2017-03-20T05:28:52.110Z,938.7
2017-03-20T05:30:00.603Z,938.7
2017-03-20T05:31:08.243Z,938.7
2017-03-20T05:32:16.277Z,938.7
2017-03-20T05:33:24.365Z,938.7
2017-03-20T05:34:32.474Z,938.7
2017-03-20T05:35:40.590Z,938.7
2017-03-20T05:36:48.622Z,938.8
2017-03-20T05:37:56.715Z,938.8
2017-03-20T05:39:04.875Z,938.8
2017-03-20T05:40:13.070Z,938.9
2017-03-20T05:41:21.035Z,938.8
2017-03-20T05:42:29.460Z,938.8
2017-03-20T05:43:37.223Z,938.8
2017-03-20T05:44:45.237Z,938.8
2017-03-20T05:45:53.462Z,938.8
2017-03-20T05:47:01.948Z,938.9
2017-03-20T05:48:09.498Z,938.9
2017-03-20T05:49:17.583Z,938.8
2017-03-20T05:50:26.213Z,938.9
2017-03-20T05:51:35.314Z,938.9
2017-03-20T05:52:41.896Z,938.9
2017-03-20T05:53:49.928Z,938.9
2017-03-20T05:54:58.205Z,938.9
2017-03-20T05:56:06.102Z,938.9
2017-03-20T05:57:14.188Z,938.9
2017-03-20T05:58:22.774Z,938.9
2017-03-20T05:59:30.364Z,938.9
2017-03-20T06:00:38.551Z,938.9
2017-03-20T06:01:46.538Z,938.9
2017-03-20T06:02:54.681Z,938.9
2017-03-20T06:04:03.216Z,938.9
2017-03-20T06:05:10.801Z,938.9
2017-03-20T06:06:19.016Z,938.9
2017-03-20T06:07:26.970Z,938.9
2017-03-20T06:08:35.055Z,938.9
2017-03-20T06:09:43.193Z,938.9
2017-03-20T06:10:51.222Z,938.9
2017-03-20T06:11:59.313Z,938.9
2017-03-20T06:13:07.395Z,938.9
2017-03-20T06:14:15.480Z,938.9
2017-03-20T06:15:24.077Z,938.9
2017-03-20T06:16:31.805Z,938.9
2017-03-20T06:17:39.793Z,938.9
2017-03-20T06:18:47.886Z,938.9
2017-03-20T06:19:55.915Z,938.9
2017-03-20T06:21:04.056Z,938.9
2017-03-20T06:22:12.084Z,938.9
2017-03-20T06:23:20.223Z,938.9
2017-03-20T06:24:28.254Z,938.9
2017-03-20T06:25:36.336Z,938.9
2017-03-20T06:26:44.485Z,938.9
2017-03-20T06:27:52.693Z,938.9
2017-03-20T06:29:00.606Z,938.9
2017-03-20T06:30:08.690Z,938.9
2017-03-20T06:31:16.781Z,938.9
2017-03-20T06:32:25.414Z,938.9
2017-03-20T06:33:32.974Z,938.9
2017-03-20T06:34:41.112Z,938.9
2017-03-20T06:35:49.127Z,938.9
2017-03-20T06:36:57.221Z,938.9
2017-03-20T06:38:05.543Z,938.9
2017-03-20T06:39:13.481Z,938.9
2017-03-20T06:40:21.478Z,938.9
2017-03-20T06:41:29.562Z,938.9
2017-03-20T06:42:37.649Z,938.9
2017-03-20T06:43:46.237Z,938.9
2017-03-20T06:44:53.817Z,938.9
2017-03-20T06:46:01.902Z,938.9
2017-03-20T06:47:09.991Z,938.9
2017-03-20T06:48:18.074Z,938.9
2017-03-20T06:49:26.339Z,939.0
2017-03-20T06:50:34.758Z,939.0
2017-03-20T06:51:42.337Z,939.0
2017-03-20T06:52:50.424Z,939.0
2017-03-20T06:53:58.506Z,939.0
2017-03-20T06:55:06.658Z,939.0
2017-03-20T06:56:14.694Z,939.0
2017-03-20T06:57:22.775Z,939.0
2017-03-20T06:58:30.866Z,939.0
2017-03-20T06:59:39.026Z,938.9
2017-03-20T07:00:47.600Z,938.9
2017-03-20T07:01:55.118Z,938.9
2017-03-20T07:03:03.204Z,938.9
2017-03-20T07:04:11.291Z,938.9
2017-03-20T07:05:19.573Z,938.9
2017-03-20T07:06:27.519Z,938.9
2017-03-20T07:07:35.556Z,938.9
2017-03-20T07:08:43.634Z,938.8
2017-03-20T07:09:51.718Z,938.9
2017-03-20T07:10:59.831Z,938.8
2017-03-20T07:12:08.403Z,938.8
2017-03-20T07:13:15.983Z,938.8
2017-03-20T07:14:24.071Z,938.8
2017-03-20T07:15:32.311Z,938.8
2017-03-20T07:16:40.247Z,938.8
2017-03-20T07:17:48.386Z,938.8
2017-03-20T07:18:56.419Z,938.8
2017-03-20T07:20:04.504Z,938.8
2017-03-20T07:21:12.586Z,938.7
2017-03-20T07:22:20.729Z,938.8
2017-03-20T07:23:29.262Z,938.7
2017-03-20T07:24:36.839Z,938.8
2017-03-20T07:25:44.930Z,938.8
2017-03-20T07:26:53.118Z,938.8
2017-03-20T07:28:01.111Z,938.8
2017-03-20T07:29:09.261Z,938.7
2017-03-20T07:30:17.298Z,938.7
2017-03-20T07:31:25.386Z,938.7
2017-03-20T07:32:33.477Z,938.7
2017-03-20T07:33:41.560Z,938.7
2017-03-20T07:34:50.152Z,938.7
2017-03-20T07:35:57.735Z,938.7
2017-03-20T07:37:05.890Z,938.7
2017-03-20T07:38:13.966Z,938.6
2017-03-20T07:39:22.000Z,938.7
2017-03-20T07:40:30.141Z,938.6
2017-03-20T07:41:38.172Z,938.6
2017-03-20T07:42:46.264Z,938.7
2017-03-20T07:43:54.350Z,938.6
2017-03-20T07:45:02.434Z,938.6
2017-03-20T07:46:10.641Z,938.6
2017-03-20T07:47:18.607Z,938.6
2017-03-20T07:48:26.756Z,938.6
2017-03-20T07:49:34.777Z,938.6
2017-03-20T07:50:42.862Z,938.7
2017-03-20T07:51:51.454Z,938.6
2017-03-20T07:52:59.034Z,938.6
2017-03-20T07:54:07.178Z,938.7
2017-03-20T07:55:15.208Z,938.6
2017-03-20T07:56:23.289Z,938.7
2017-03-20T07:57:31.433Z,938.7
2017-03-20T07:58:39.459Z,938.7
2017-03-20T07:59:47.552Z,938.7
2017-03-20T08:00:55.644Z,938.6
2017-03-20T08:02:03.740Z,938.6
2017-03-20T08:03:12.478Z,938.6
2017-03-20T08:04:20.051Z,938.6
2017-03-20T08:05:27.987Z,938.6
2017-03-20T08:06:36.074Z,938.6
2017-03-20T08:07:44.165Z,938.6
2017-03-20T08:08:52.756Z,938.6
2017-03-20T08:10:00.415Z,938.6
2017-03-20T08:11:08.428Z,938.6
2017-03-20T08:12:16.507Z,938.6
2017-03-20T08:13:24.601Z,938.7
2017-03-20T08:14:32.889Z,938.6
2017-03-20T08:15:40.763Z,938.7
2017-03-20T08:16:48.850Z,938.6
2017-03-20T08:17:56.938Z,938.6
2017-03-20T08:19:05.027Z,938.6
2017-03-20T08:20:13.614Z,938.6
2017-03-20T08:21:21.229Z,938.6
2017-03-20T08:22:29.284Z,938.6
2017-03-20T08:23:37.368Z,938.7
2017-03-20T08:24:45.540Z,938.6
2017-03-20T08:25:53.783Z,938.7
2017-03-20T08:27:01.625Z,938.7
2017-03-20T08:28:09.706Z,938.7
2017-03-20T08:29:17.795Z,938.7
2017-03-20T08:30:25.887Z,938.7
2017-03-20T08:31:34.479Z,938.7
2017-03-20T08:32:42.070Z,938.7
2017-03-20T08:33:50.144Z,938.7
2017-03-20T08:34:58.228Z,938.7
2017-03-20T08:36:06.409Z,938.6
2017-03-20T08:37:14.457Z,938.6
2017-03-20T08:38:22.486Z,938.6
2017-03-20T08:39:30.572Z,938.6
2017-03-20T08:40:38.663Z,938.6
2017-03-20T08:41:47.262Z,938.6
2017-03-20T08:42:54.895Z,938.6
2017-03-20T08:44:02.922Z,938.6
2017-03-20T08:45:11.012Z,938.6
2017-03-20T08:46:19.135Z,938.5
2017-03-20T08:47:27.291Z,938.6
2017-03-20T08:48:35.319Z,938.6
2017-03-20T08:49:43.349Z,938.6
2017-03-20T08:50:51.433Z,938.5
2017-03-20T08:51:59.517Z,938.6
2017-03-20T08:53:07.607Z,938.5
2017-03-20T08:54:15.749Z,938.5
2017-03-20T08:55:23.779Z,938.6
2017-03-20T08:56:31.865Z,938.6
2017-03-20T08:57:40.599Z,938.5
2017-03-20T08:58:48.031Z,938.6
2017-03-20T08:59:56.171Z,938.6
2017-03-20T09:01:04.203Z,938.6
2017-03-20T09:02:12.289Z,938.5
2017-03-20T09:03:20.465Z,938.5
2017-03-20T09:04:28.466Z,938.5
2017-03-20T09:05:37.050Z,938.5
2017-03-20T09:06:44.631Z,938.5
2017-03-20T09:07:52.714Z,938.4
2017-03-20T09:09:00.949Z,938.4
2017-03-20T09:10:08.923Z,938.4
2017-03-20T09:11:17.027Z,938.4
2017-03-20T09:12:25.058Z,938.5
2017-03-20T09:13:33.651Z,938.5
2017-03-20T09:14:41.228Z,938.5
2017-03-20T09:15:49.313Z,938.5
2017-03-20T09:16:57.456Z,938.5
2017-03-20T09:18:05.493Z,938.5
2017-03-20T09:19:13.747Z,938.5
2017-03-20T09:20:21.765Z,938.5
2017-03-20T09:21:29.749Z,938.6
2017-03-20T09:22:37.887Z,938.6
2017-03-20T09:23:45.916Z,938.6
2017-03-20T09:24:54.006Z,938.6
2017-03-20T09:26:02.086Z,938.5
2017-03-20T09:27:10.173Z,938.6
2017-03-20T09:28:18.321Z,938.5
2017-03-20T09:29:26.856Z,938.6
2017-03-20T09:30:34.437Z,938.6
2017-03-20T09:31:42.518Z,938.6
2017-03-20T09:32:50.617Z,938.6
2017-03-20T09:33:58.750Z,938.6
2017-03-20T09:35:06.968Z,938.6
2017-03-20T09:36:14.864Z,938.6
2017-03-20T09:37:22.949Z,938.6
2017-03-20T09:38:31.033Z,938.6
2017-03-20T09:39:39.175Z,938.6
2017-03-20T09:40:47.238Z,938.6
2017-03-20T09:41:55.324Z,938.6
2017-03-20T09:43:03.373Z,938.6
2017-03-20T09:44:11.496Z,938.6
2017-03-20T09:45:19.601Z,938.5
2017-03-20T09:46:27.629Z,938.5
2017-03-20T09:47:35.718Z,938.5
2017-03-20T09:48:43.804Z,938.5
2017-03-20T09:49:51.886Z,938.5
2017-03-20T09:51:00.030Z,938.5
2017-03-20T09:52:08.083Z,938.5
2017-03-20T09:53:16.147Z,938.5
2017-03-20T09:54:24.235Z,938.5
2017-03-20T09:55:32.317Z,938.4
2017-03-20T09:56:40.954Z,938.4
2017-03-20T09:57:48.488Z,938.3
2017-03-20T09:58:56.570Z,938.4
2017-03-20T10:00:04.658Z,938.3
2017-03-20T10:01:12.800Z,938.3
2017-03-20T10:02:20.891Z,938.3
2017-03-20T10:03:28.925Z,938.3
2017-03-20T10:04:37.002Z,938.3
2017-03-20T10:05:45.085Z,938.3
2017-03-20T10:06:53.324Z,938.3
2017-03-20T10:08:01.909Z,938.3
2017-03-20T10:09:09.340Z,938.3
2017-03-20T10:10:17.422Z,938.3
2017-03-20T10:11:25.512Z,938.3
2017-03-20T10:12:33.599Z,938.3
2017-03-20T10:13:41.747Z,938.3
2017-03-20T10:14:49.770Z,938.3
2017-03-20T10:15:57.864Z,938.3
2017-03-20T10:17:06.449Z,938.3
2017-03-20T10:18:14.193Z,938.3
2017-03-20T10:19:22.171Z,938.3
2017-03-20T10:20:30.199Z,938.3
2017-03-20T10:21:38.282Z,938.3
2017-03-20T10:22:46.369Z,938.3
2017-03-20T10:23:54.457Z,938.3
2017-03-20T10:25:02.595Z,938.3
2017-03-20T10:26:10.626Z,938.3
2017-03-20T10:27:18.710Z,938.2
2017-03-20T10:28:26.798Z,938.3
2017-03-20T10:29:35.042Z,938.2
2017-03-20T10:30:43.471Z,938.2
2017-03-20T10:31:51.054Z,938.2
2017-03-20T10:32:59.195Z,938.2
2017-03-20T10:34:07.219Z,938.2
2017-03-20T10:35:15.310Z,938.2
2017-03-20T10:36:23.450Z,938.2
2017-03-20T10:37:31.486Z,938.2
2017-03-20T10:38:39.568Z,938.1
2017-03-20T10:39:47.762Z,938.2
2017-03-20T10:40:55.744Z,938.1
2017-03-20T10:42:04.327Z,938.0
2017-03-20T10:43:11.913Z,938.1
2017-03-20T10:44:19.997Z,938.0
2017-03-20T10:45:28.075Z,938.0
2017-03-20T10:46:36.169Z,938.0
2017-03-20T10:47:44.310Z,937.9
2017-03-20T10:48:52.391Z,937.9
2017-03-20T10:50:00.624Z,937.9
2017-03-20T10:51:08.514Z,937.9
2017-03-20T10:52:16.592Z,937.9
2017-03-20T10:53:24.737Z,937.9
2017-03-20T10:54:32.765Z,937.9
2017-03-20T10:55:40.855Z,937.9
2017-03-20T10:56:48.943Z,937.9
2017-03-20T10:57:57.024Z,937.9
2017-03-20T10:59:05.620Z,937.8
2017-03-20T11:00:13.196Z,937.9
2017-03-20T11:01:21.373Z,937.9
2017-03-20T11:02:29.467Z,937.9
2017-03-20T11:03:37.466Z,937.9
2017-03-20T11:04:45.660Z,937.9
2017-03-20T11:05:53.624Z,937.9
2017-03-20T11:07:01.710Z,937.9
2017-03-20T11:08:09.799Z,937.9
2017-03-20T11:09:17.881Z,937.9
2017-03-20T11:10:26.475Z,937.9
2017-03-20T11:11:34.058Z,938.0
2017-03-20T11:12:42.215Z,937.9
2017-03-20T11:13:50.227Z,937.9
2017-03-20T11:14:58.315Z,937.8
2017-03-20T11:16:06.457Z,937.9
2017-03-20T11:17:14.482Z,937.9
2017-03-20T11:18:22.578Z,937.8
2017-03-20T11:19:30.668Z,937.8
2017-03-20T11:20:39.267Z,937.8
2017-03-20T11:21:46.895Z,937.8
2017-03-20T11:22:55.006Z,937.8
2017-03-20T11:24:03.073Z,937.7
2017-03-20T11:25:11.097Z,937.7
2017-03-20T11:26:19.190Z,937.7
2017-03-20T11:27:27.328Z,937.6
2017-03-20T11:28:35.364Z,937.6
2017-03-20T11:29:43.447Z,937.5
2017-03-20T11:30:51.536Z,937.6
2017-03-20T11:31:59.622Z,937.6
2017-03-20T11:33:08.211Z,937.6
2017-03-20T11:34:15.867Z,937.5
2017-03-20T11:35:23.877Z,937.6
2017-03-20T11:36:32.013Z,937.5
2017-03-20T11:37:40.045Z,937.5
2017-03-20T11:38:48.187Z,937.5
2017-03-20T11:39:56.218Z,937.5
2017-03-20T11:41:04.300Z,937.5
2017-03-20T11:42:12.389Z,937.4
2017-03-20T11:43:20.478Z,937.4
2017-03-20T11:44:29.065Z,937.5
2017-03-20T11:45:36.725Z,937.5
2017-03-20T11:46:44.738Z,937.4
2017-03-20T11:47:52.819Z,937.5
2017-03-20T11:49:01.001Z,937.4
2017-03-20T11:50:09.677Z,937.5
2017-03-20T11:51:17.076Z,937.5
2017-03-20T11:52:25.215Z,937.4
2017-03-20T11:53:33.248Z,937.4
2017-03-20T11:54:41.335Z,937.4
2017-03-20T11:55:49.479Z,937.4
2017-03-20T11:56:57.504Z,937.4
2017-03-20T11:58:05.592Z,937.5
2017-03-20T11:59:13.680Z,937.5
2017-03-20T12:00:21.893Z,937.5
2017-03-20T12:01:30.352Z,937.5
2017-03-20T12:02:37.931Z,937.5
2017-03-20T12:03:46.017Z,937.4
2017-03-20T12:04:54.100Z,937.4
2017-03-20T12:06:02.251Z,937.3
2017-03-20T12:07:10.329Z,937.4
2017-03-20T12:08:18.872Z,937.4
2017-03-20T12:09:26.449Z,937.4
2017-03-20T12:10:34.534Z,937.3
2017-03-20T12:11:42.692Z,937.3
2017-03-20T12:12:50.768Z,937.3
2017-03-20T12:13:58.799Z,937.4
2017-03-20T12:15:06.885Z,937.3
2017-03-20T12:16:14.973Z,937.3
2017-03-20T12:17:23.063Z,937.2
2017-03-20T12:18:31.692Z,937.2
2017-03-20T12:19:39.237Z,937.2
2017-03-20T12:20:47.316Z,937.2
2017-03-20T12:21:55.405Z,937.2
2017-03-20T12:23:03.489Z,937.2
2017-03-20T12:24:11.629Z,937.2
2017-03-20T12:25:19.658Z,937.2
2017-03-20T12:26:27.934Z,937.1
2017-03-20T12:27:35.993Z,937.2
2017-03-20T12:28:43.922Z,937.1
2017-03-20T12:29:52.072Z,937.1
2017-03-20T12:31:00.104Z,937.1
2017-03-20T12:32:08.187Z,937.0
2017-03-20T12:33:16.275Z,937.1
2017-03-20T12:34:24.361Z,937.0
2017-03-20T12:35:32.952Z,937.0
2017-03-20T12:36:40.533Z,937.0
2017-03-20T12:37:48.758Z,937.0
2017-03-20T12:38:56.707Z,937.0
2017-03-20T12:40:04.848Z,937.0
2017-03-20T12:41:12.936Z,937.0
2017-03-20T12:42:20.965Z,937.0
2017-03-20T12:43:29.050Z,936.9
2017-03-20T12:44:37.137Z,936.9
2017-03-20T12:45:45.221Z,936.9
2017-03-20T12:46:53.811Z,936.9
2017-03-20T12:48:01.401Z,936.9
2017-03-20T12:49:09.484Z,936.9
2017-03-20T12:50:17.567Z,936.8
2017-03-20T12:51:25.650Z,936.8
2017-03-20T12:52:34.244Z,936.8
2017-03-20T12:53:41.827Z,936.8
2017-03-20T12:54:49.907Z,936.8
2017-03-20T12:55:58.049Z,936.8
2017-03-20T12:57:06.081Z,936.7
2017-03-20T12:58:14.223Z,936.7
2017-03-20T12:59:22.391Z,936.6
2017-03-20T13:00:30.339Z,936.7
2017-03-20T13:01:38.430Z,936.7
2017-03-20T13:02:46.517Z,936.6
2017-03-20T13:03:55.100Z,936.7
2017-03-20T13:05:02.684Z,936.7
2017-03-20T13:06:10.767Z,936.7
2017-03-20T13:07:18.854Z,936.7
2017-03-20T13:08:26.942Z,936.7
2017-03-20T13:09:35.290Z,936.7
2017-03-20T13:10:43.227Z,936.7
2017-03-20T13:11:51.700Z,936.7
2017-03-20T13:12:59.284Z,936.7
2017-03-20T13:14:07.369Z,936.6
2017-03-20T13:15:15.506Z,936.7
2017-03-20T13:16:23.537Z,936.6
2017-03-20T13:17:31.625Z,936.6
2017-03-20T13:18:39.712Z,936.6
2017-03-20T13:19:47.800Z,936.5
2017-03-20T13:20:56.070Z,936.5
2017-03-20T13:22:03.969Z,936.5
2017-03-20T13:23:12.048Z,936.5
2017-03-20T13:24:20.140Z,936.5
2017-03-20T13:25:28.225Z,936.5
2017-03-20T13:26:36.810Z,936.5
2017-03-20T13:27:44.452Z,936.5
2017-03-20T13:28:52.484Z,936.5
2017-03-20T13:30:00.569Z,936.5
2017-03-20T13:31:08.658Z,936.5
2017-03-20T13:32:16.889Z,936.5
2017-03-20T13:33:24.833Z,936.5
2017-03-20T13:34:32.921Z,936.4
2017-03-20T13:35:41.006Z,936.4
2017-03-20T13:36:49.095Z,936.4
2017-03-20T13:37:57.237Z,936.4
2017-03-20T13:39:05.275Z,936.4
2017-03-20T13:40:13.352Z,936.3
2017-03-20T13:41:21.437Z,936.3
2017-03-20T13:42:29.524Z,936.4
2017-03-20T13:43:38.123Z,936.3
2017-03-20T13:44:45.704Z,936.4
2017-03-20T13:45:53.790Z,936.3
2017-03-20T13:47:01.988Z,936.3
2017-03-20T13:48:10.050Z,936.3
2017-03-20T13:49:18.108Z,936.3
2017-03-20T13:50:26.136Z,936.3
2017-03-20T13:51:34.227Z,936.3
2017-03-20T13:52:42.315Z,936.2
2017-03-20T13:53:50.400Z,936.2
2017-03-20T13:54:58.992Z,936.2
2017-03-20T13:56:06.577Z,936.2
2017-03-20T13:57:14.661Z,936.2
2017-03-20T13:58:22.829Z,936.1
2017-03-20T13:59:30.890Z,936.1
2017-03-20T14:00:39.429Z,936.1
2017-03-20T14:01:47.003Z,936.1
2017-03-20T14:02:55.092Z,936.1
2017-03-20T14:04:03.178Z,936.1
2017-03-20T14:05:11.262Z,936.1
2017-03-20T14:06:19.405Z,936.0
2017-03-20T14:07:27.435Z,936.1
2017-03-20T14:08:35.686Z,936.1
2017-03-20T14:09:43.748Z,936.0
2017-03-20T14:10:51.692Z,936.0
2017-03-20T14:12:00.293Z,936.0
2017-03-20T14:13:07.871Z,936.0
2017-03-20T14:14:15.954Z,936.0
2017-03-20T14:15:24.101Z,936.0
2017-03-20T14:16:32.125Z,936.0
2017-03-20T14:17:40.272Z,936.0
2017-03-20T14:18:48.295Z,936.0
2017-03-20T14:19:56.420Z,936.0
2017-03-20T14:21:04.470Z,936.0
2017-03-20T14:22:12.549Z,936.0
2017-03-20T14:23:21.146Z,936.1
2017-03-20T14:24:28.727Z,936.0
2017-03-20T14:25:36.809Z,936.0
2017-03-20T14:26:44.894Z,936.0
2017-03-20T14:27:52.983Z,936.0
2017-03-20T14:29:01.127Z,936.0
2017-03-20T14:30:09.255Z,936.0
2017-03-20T14:31:17.851Z,936.1
2017-03-20T14:32:25.333Z,936.1
2017-03-20T14:33:33.413Z,936.0
2017-03-20T14:34:41.748Z,936.0
2017-03-20T14:35:49.590Z,936.0
2017-03-20T14:36:57.671Z,936.0